createdAt,value
2019-04-20T00:02:25.467Z,4.24
2019-04-20T00:04:59.097Z,4.24
2019-04-20T00:07:34.370Z,4.20
2019-04-20T00:10:09.880Z,4.20
2019-04-20T00:12:51.993Z,4.21
2019-04-20T00:15:09.004Z,4.18
2019-04-20T00:17:45.895Z,4.18
2019-04-20T00:20:19.014Z,4.12
2019-04-20T00:23:03.775Z,4.15
2019-04-20T00:25:52.203Z,4.15
2019-04-20T00:28:34.084Z,4.11
2019-04-20T00:31:05.565Z,4.11
2019-04-20T00:33:32.219Z,4.09
2019-04-20T00:35:54.976Z,4.05
2019-04-20T00:38:27.134Z,4.00
2019-04-20T00:41:02.759Z,3.99
2019-04-20T00:43:34.262Z,3.99
2019-04-20T00:46:08.227Z,3.98
2019-04-20T00:48:46.226Z,3.96
2019-04-20T00:51:39.587Z,3.96
2019-04-20T00:53:47.915Z,3.97
2019-04-20T00:56:16.155Z,3.94
2019-04-20T00:58:58.025Z,3.94
2019-04-20T01:01:46.182Z,3.94
2019-04-20T01:04:16.281Z,3.88
2019-04-20T01:06:42.496Z,3.81
2019-04-20T01:09:01.314Z,3.78
2019-04-20T01:11:38.409Z,3.80
2019-04-20T01:14:09.384Z,3.75
2019-04-20T01:16:43.976Z,3.73
2019-04-20T01:19:10.258Z,3.74
2019-04-20T01:21:43.022Z,3.70
2019-04-20T01:24:20.155Z,3.70
2019-04-20T01:26:50.796Z,3.71
2019-04-20T01:29:29.618Z,3.69
2019-04-20T01:32:05.697Z,3.75
2019-04-20T01:34:39.310Z,3.76
2019-04-20T01:37:13.099Z,3.75
2019-04-20T01:39:37.053Z,3.74
2019-04-20T01:42:02.434Z,3.66
2019-04-20T01:44:41.177Z,3.63
2019-04-20T01:47:08.241Z,3.63
2019-04-20T01:49:40.258Z,3.64
2019-04-20T01:52:20.195Z,3.64
2019-04-20T01:55:04.836Z,3.63
2019-04-20T01:57:37.557Z,3.62
2019-04-20T02:00:11.475Z,3.59
2019-04-20T02:02:52.055Z,3.62
2019-04-20T02:05:24.770Z,3.64
2019-04-20T02:07:55.571Z,3.64
2019-04-20T02:10:37.059Z,3.64
2019-04-20T02:13:02.891Z,3.67
2019-04-20T02:15:39.970Z,3.67
2019-04-20T02:18:17.607Z,3.70
2019-04-20T02:20:54.660Z,3.71
2019-04-20T02:23:23.511Z,3.75
2019-04-20T02:25:43.917Z,3.79
2019-04-20T02:28:34.030Z,3.78
2019-04-20T02:31:23.386Z,3.78
2019-04-20T02:36:58.781Z,3.68
2019-04-20T02:39:34.954Z,3.62
2019-04-20T02:41:50.951Z,3.62
2019-04-20T02:44:24.166Z,3.56
2019-04-20T02:52:19.120Z,3.48
2019-04-20T02:57:07.409Z,3.37
2019-04-20T03:01:57.984Z,3.27
2019-04-20T03:04:20.528Z,3.27
2019-04-20T03:06:58.331Z,3.24
2019-04-20T03:09:36.903Z,3.24
2019-04-20T03:12:07.980Z,3.23
2019-04-20T03:14:35.154Z,3.19
2019-04-20T03:17:18.267Z,3.21
2019-04-20T03:19:40.849Z,3.18
2019-04-20T03:22:23.580Z,3.21
2019-04-20T03:24:56.572Z,3.21
2019-04-20T03:27:28.143Z,3.23
2019-04-20T03:30:04.190Z,3.22
2019-04-20T03:35:17.386Z,3.28
2019-04-20T03:37:44.224Z,3.27
2019-04-20T03:40:10.305Z,3.29
2019-04-20T03:42:26.609Z,3.33
2019-04-20T03:45:04.153Z,3.36
2019-04-20T03:47:38.465Z,3.41
2019-04-20T03:50:24.953Z,3.45
2019-04-20T03:53:05.815Z,3.49
2019-04-20T03:55:25.937Z,3.55
2019-04-20T03:58:10.781Z,3.61
2019-04-20T04:00:36.160Z,3.68
2019-04-20T04:03:29.403Z,3.74
2019-04-20T04:05:51.886Z,3.87
2019-04-20T04:08:17.110Z,3.99
2019-04-20T04:11:06.682Z,4.09
2019-04-20T04:13:18.750Z,4.36
2019-04-20T04:15:55.592Z,4.65
2019-04-20T04:18:29.879Z,4.84
2019-04-20T04:21:01.988Z,5.12
2019-04-20T04:23:44.826Z,5.45
2019-04-20T04:26:20.307Z,5.72
2019-04-20T04:28:48.966Z,6.02
2019-04-20T04:31:27.630Z,6.30
2019-04-20T04:34:12.245Z,6.60
2019-04-20T04:36:30.114Z,6.78
2019-04-20T04:39:08.851Z,6.75
2019-04-20T04:41:37.950Z,6.85
2019-04-20T04:44:09.914Z,7.15
2019-04-20T04:46:24.876Z,7.32
2019-04-20T04:49:06.886Z,7.67
2019-04-20T04:51:41.744Z,7.98
2019-04-20T04:54:12.848Z,8.38
2019-04-20T04:56:35.558Z,8.84
2019-04-20T04:59:06.526Z,9.04
2019-04-20T05:01:39.380Z,8.95
2019-04-20T05:04:29.013Z,8.84
2019-04-20T05:06:59.478Z,8.76
2019-04-20T05:09:17.139Z,8.67
2019-04-20T05:11:56.911Z,8.69
2019-04-20T05:14:26.219Z,9.00
2019-04-20T05:17:07.379Z,9.42
2019-04-20T05:19:49.827Z,9.84
2019-04-20T05:22:22.938Z,10.17
2019-04-20T05:25:01.026Z,10.71
2019-04-20T05:27:36.351Z,11.28
2019-04-20T05:29:44.999Z,11.54
2019-04-20T05:32:31.428Z,11.84
2019-04-20T05:35:15.093Z,12.01
2019-04-20T05:37:48.898Z,11.91
2019-04-20T05:40:16.535Z,11.86
2019-04-20T05:42:52.359Z,11.87
2019-04-20T05:45:21.819Z,11.85
2019-04-20T05:47:53.611Z,11.78
2019-04-20T05:50:31.674Z,11.79
2019-04-20T05:53:07.440Z,12.19
2019-04-20T05:55:48.874Z,12.74
2019-04-20T05:58:26.187Z,13.19
2019-04-20T06:01:00.224Z,13.58
2019-04-20T06:03:26.115Z,13.91
2019-04-20T06:06:03.830Z,14.32
2019-04-20T06:08:47.515Z,14.69
2019-04-20T06:11:09.339Z,15.11
2019-04-20T06:13:43.126Z,15.47
2019-04-20T06:16:31.033Z,15.88
2019-04-20T06:19:15.571Z,16.30
2019-04-20T06:21:37.877Z,16.70
2019-04-20T06:24:20.769Z,17.11
2019-04-20T06:26:59.651Z,17.49
2019-04-20T06:29:18.468Z,17.65
2019-04-20T06:31:59.127Z,17.85
2019-04-20T06:34:41.621Z,17.97
2019-04-20T06:37:01.015Z,18.25
2019-04-20T06:39:44.748Z,18.49
2019-04-20T06:44:45.766Z,18.54
2019-04-20T06:47:29.422Z,18.61
2019-04-20T06:50:11.139Z,18.70
2019-04-20T07:00:18.047Z,19.43
2019-04-20T07:02:50.065Z,19.42
2019-04-20T07:08:00.423Z,19.04
2019-04-20T07:10:31.333Z,18.97
2019-04-20T07:12:56.780Z,18.85
2019-04-20T07:15:40.198Z,18.72
2019-04-20T07:18:16.699Z,18.66
2019-04-20T07:21:12.789Z,18.53
2019-04-20T07:23:51.676Z,18.42
2019-04-20T07:26:15.342Z,18.20
2019-04-20T07:28:50.533Z,18.41
2019-04-20T07:31:15.843Z,18.61
2019-04-20T07:33:48.001Z,18.89
2019-04-20T07:36:26.589Z,18.91
2019-04-20T07:38:54.253Z,19.16
2019-04-20T07:41:33.032Z,19.41
2019-04-20T07:44:04.059Z,19.52
2019-04-20T07:46:47.158Z,19.59
2019-04-20T07:49:08.843Z,19.79
2019-04-20T07:51:28.228Z,19.98
2019-04-20T07:54:23.284Z,20.13
2019-04-20T07:56:50.464Z,20.23
2019-04-20T07:59:14.041Z,20.34
2019-04-20T08:02:08.139Z,20.47
2019-04-20T08:04:35.300Z,20.58
2019-04-20T08:06:53.955Z,20.61
2019-04-20T08:09:31.850Z,20.34
2019-04-20T08:12:21.794Z,20.34
2019-04-20T08:14:57.045Z,20.53
2019-04-20T08:17:46.762Z,20.55
2019-04-20T08:19:50.931Z,20.73
2019-04-20T08:22:27.056Z,20.46
2019-04-20T08:25:00.596Z,20.31
2019-04-20T08:27:19.827Z,20.41
2019-04-20T08:30:09.070Z,20.21
2019-04-20T08:32:51.508Z,19.33
2019-04-20T08:35:31.938Z,18.79
2019-04-20T08:38:26.764Z,18.80
2019-04-20T08:40:40.280Z,18.89
2019-04-20T08:43:20.083Z,18.83
2019-04-20T08:45:49.454Z,18.93
2019-04-20T08:48:17.425Z,18.54
2019-04-20T08:50:44.993Z,18.62
2019-04-20T08:55:44.968Z,18.71
2019-04-20T08:58:04.877Z,18.73
2019-04-20T09:00:45.698Z,18.46
2019-04-20T09:03:17.326Z,18.36
2019-04-20T09:05:52.257Z,18.04
2019-04-20T09:08:21.239Z,18.04
2019-04-20T09:11:05.898Z,17.56
2019-04-20T09:13:29.953Z,17.62
2019-04-20T09:15:53.528Z,17.80
2019-04-20T09:18:49.400Z,17.91
2019-04-20T09:21:24.342Z,18.00
2019-04-20T09:24:13.217Z,17.75
2019-04-20T09:26:39.952Z,17.89
2019-04-20T09:29:13.714Z,17.87
2019-04-20T09:31:40.844Z,17.91
2019-04-20T09:34:17.321Z,17.94
2019-04-20T09:36:51.395Z,17.76
2019-04-20T09:39:21.349Z,17.61
2019-04-20T09:42:00.799Z,17.67
2019-04-20T09:44:30.189Z,17.65
2019-04-20T09:46:59.490Z,17.47
2019-04-20T09:49:42.575Z,17.68
2019-04-20T09:52:17.035Z,17.60
2019-04-20T09:54:52.558Z,17.51
2019-04-20T09:57:25.554Z,17.18
2019-04-20T09:59:58.629Z,17.16
2019-04-20T10:02:18.852Z,17.13
2019-04-20T10:04:47.327Z,17.23
2019-04-20T10:07:22.246Z,17.11
2019-04-20T10:09:52.069Z,16.66
2019-04-20T10:12:31.283Z,16.76
2019-04-20T10:15:12.407Z,16.87
2019-04-20T10:17:38.621Z,16.86
2019-04-20T10:20:19.442Z,17.05
2019-04-20T10:22:44.744Z,17.27
2019-04-20T10:25:15.810Z,17.17
2019-04-20T10:27:47.483Z,17.15
2019-04-20T10:30:18.681Z,16.92
2019-04-20T10:32:53.460Z,16.94
2019-04-20T10:35:23.843Z,16.86
2019-04-20T10:38:15.645Z,16.85
2019-04-20T10:40:59.785Z,16.39
2019-04-20T10:43:19.814Z,16.65
2019-04-20T10:45:50.991Z,16.56
2019-04-20T10:48:23.405Z,16.52
2019-04-20T10:50:54.861Z,16.58
2019-04-20T10:53:26.057Z,16.68
2019-04-20T10:55:57.748Z,16.56
2019-04-20T10:58:29.575Z,16.54
2019-04-20T11:01:01.780Z,16.64
2019-04-20T11:03:32.821Z,16.62
2019-04-20T11:06:04.834Z,16.68
2019-04-20T11:08:35.917Z,16.66
2019-04-20T11:11:13.018Z,16.66
2019-04-20T11:13:39.508Z,16.70
2019-04-20T11:16:10.772Z,16.73
2019-04-20T11:18:43.137Z,16.83
2019-04-20T11:21:15.426Z,16.88
2019-04-20T11:23:46.746Z,17.09
2019-04-20T11:26:18.140Z,16.77
2019-04-20T11:28:50.374Z,16.84
2019-04-20T11:31:22.017Z,16.78
2019-04-20T11:33:54.196Z,16.71
2019-04-20T11:36:27.433Z,16.50
2019-04-20T11:38:58.751Z,16.67
2019-04-20T11:41:32.690Z,16.59
2019-04-20T11:44:03.316Z,16.72
2019-04-20T11:46:34.584Z,16.56
2019-04-20T11:49:05.781Z,16.48
2019-04-20T11:51:37.353Z,16.12
2019-04-20T11:54:08.433Z,16.10
2019-04-20T11:56:43.493Z,16.01
2019-04-20T11:59:12.650Z,16.01
2019-04-20T12:02:03.675Z,15.90
2019-04-20T12:04:45.482Z,15.90
2019-04-20T12:07:11.145Z,16.01
2019-04-20T12:09:42.096Z,16.03
2019-04-20T12:12:24.627Z,16.21
2019-04-20T12:14:46.405Z,16.07
2019-04-20T12:17:17.685Z,15.97
2019-04-20T12:19:50.075Z,15.92
2019-04-20T12:22:22.201Z,15.94
2019-04-20T12:24:54.116Z,15.96
2019-04-20T12:27:25.180Z,15.98
2019-04-20T12:29:57.468Z,15.86
2019-04-20T12:32:36.433Z,15.76
2019-04-20T12:35:02.604Z,15.93
2019-04-20T12:37:34.661Z,15.91
2019-04-20T12:40:10.606Z,15.88
2019-04-20T12:42:43.164Z,15.75
2019-04-20T12:45:15.746Z,15.88
2019-04-20T12:47:48.637Z,16.02
2019-04-20T12:50:21.379Z,15.91
2019-04-20T12:52:52.604Z,16.07
2019-04-20T12:55:23.447Z,15.85
2019-04-20T12:57:54.529Z,15.99
2019-04-20T13:00:30.900Z,15.86
2019-04-20T13:03:03.105Z,15.68
2019-04-20T13:05:34.276Z,15.59
2019-04-20T13:08:07.447Z,15.62
2019-04-20T13:10:40.202Z,15.58
2019-04-20T13:13:28.184Z,15.59
2019-04-20T13:16:08.195Z,15.36
2019-04-20T13:18:41.250Z,15.41
2019-04-20T13:21:13.272Z,15.23
2019-04-20T13:23:45.401Z,15.21
2019-04-20T13:26:17.483Z,15.34
2019-04-20T13:28:48.836Z,15.25
2019-04-20T13:31:19.939Z,15.25
2019-04-20T13:33:51.620Z,15.40
2019-04-20T13:36:24.049Z,15.48
2019-04-20T13:38:56.406Z,15.54
2019-04-20T13:41:27.737Z,15.44
2019-04-20T13:44:01.291Z,15.52
2019-04-20T13:46:31.395Z,15.57
2019-04-20T13:49:02.983Z,15.55
2019-04-20T13:51:34.984Z,15.52
2019-04-20T13:54:13.902Z,15.59
2019-04-20T13:56:41.695Z,15.71
2019-04-20T13:59:23.769Z,15.89
2019-04-20T14:01:57.032Z,15.82
2019-04-20T14:04:30.700Z,15.75
2019-04-20T14:07:01.929Z,15.57
2019-04-20T14:09:35.274Z,15.58
2019-04-20T14:12:17.343Z,15.67
2019-04-20T14:14:39.265Z,15.72
2019-04-20T14:17:10.774Z,15.74
2019-04-20T14:19:42.823Z,15.79
2019-04-20T14:22:16.292Z,15.78
2019-04-20T14:24:48.908Z,15.78
2019-04-20T14:27:21.267Z,15.79
2019-04-20T14:29:52.965Z,15.76
2019-04-20T14:32:24.994Z,15.93
2019-04-20T14:34:56.813Z,15.98
2019-04-20T14:37:28.965Z,15.92
2019-04-20T14:40:00.605Z,15.90
2019-04-20T14:42:39.450Z,15.90
2019-04-20T14:45:09.271Z,16.03
2019-04-20T14:47:41.475Z,15.97
2019-04-20T14:50:13.726Z,15.85
2019-04-20T14:52:44.681Z,15.74
2019-04-20T14:55:17.729Z,15.82
2019-04-20T14:57:49.784Z,15.86
2019-04-20T15:00:49.957Z,15.78
2019-04-20T15:03:36.724Z,15.77
2019-04-20T15:06:05.823Z,15.60
2019-04-20T15:08:36.924Z,15.63
2019-04-20T15:11:09.262Z,15.61
2019-04-20T15:13:42.603Z,15.71
2019-04-20T15:16:14.904Z,15.63
2019-04-20T15:18:55.233Z,15.55
2019-04-20T15:21:31.631Z,15.50
2019-04-20T15:24:03.702Z,15.51
2019-04-20T15:26:36.183Z,15.56
2019-04-20T15:29:08.416Z,15.53
2019-04-20T15:31:39.499Z,15.45
2019-04-20T15:34:10.867Z,15.45
2019-04-20T15:36:44.309Z,15.49
2019-04-20T15:39:16.929Z,15.55
2019-04-20T15:41:49.568Z,15.53
2019-04-20T15:44:21.578Z,15.48
2019-04-20T15:46:53.512Z,15.48
2019-04-20T15:49:24.420Z,15.52
2019-04-20T15:51:55.723Z,15.54
2019-04-20T15:54:27.523Z,15.49
2019-04-20T15:57:02.533Z,15.56
2019-04-20T15:59:32.604Z,15.56
2019-04-20T16:02:09.400Z,15.52
2019-04-20T16:04:52.514Z,15.54
2019-04-20T16:07:25.421Z,15.53
2019-04-20T16:09:56.869Z,15.44
2019-04-20T16:12:29.103Z,15.42
2019-04-20T16:15:00.113Z,15.47
2019-04-20T16:17:38.301Z,15.41
2019-04-20T16:20:09.107Z,15.35
2019-04-20T16:22:36.683Z,15.23
2019-04-20T16:25:16.991Z,15.20
2019-04-20T16:27:49.774Z,15.03
2019-04-20T16:30:20.809Z,15.00
2019-04-20T16:33:03.002Z,14.86
2019-04-20T16:35:40.546Z,14.72
2019-04-20T16:38:16.266Z,14.55
2019-04-20T16:40:54.618Z,14.42
2019-04-20T16:43:43.006Z,14.43
2019-04-20T16:46:13.156Z,14.30
2019-04-20T16:48:44.409Z,14.25
2019-04-20T16:51:16.628Z,14.19
2019-04-20T16:53:48.003Z,14.25
2019-04-20T16:56:21.051Z,14.05
2019-04-20T16:58:57.285Z,14.06
2019-04-20T17:01:25.624Z,13.99
2019-04-20T17:04:03.913Z,13.98
2019-04-20T17:06:30.019Z,14.03
2019-04-20T17:09:01.231Z,13.98
2019-04-20T17:11:32.282Z,13.94
2019-04-20T17:14:04.080Z,13.93
2019-04-20T17:16:35.518Z,13.91
2019-04-20T17:19:07.891Z,13.93
2019-04-20T17:21:40.156Z,13.90
2019-04-20T17:24:11.387Z,13.83
2019-04-20T17:26:52.964Z,13.70
2019-04-20T17:29:28.175Z,13.73
2019-04-20T17:32:08.056Z,13.67
2019-04-20T17:34:57.175Z,13.61
2019-04-20T17:37:12.892Z,13.56
2019-04-20T17:40:06.735Z,13.52
2019-04-20T17:42:32.951Z,13.47
2019-04-20T17:45:02.219Z,13.40
2019-04-20T17:47:44.806Z,13.33
2019-04-20T17:50:17.257Z,13.33
2019-04-20T17:52:50.066Z,13.31
2019-04-20T17:55:24.579Z,13.27
2019-04-20T17:57:47.319Z,13.20
2019-04-20T18:00:22.505Z,13.10
2019-04-20T18:03:12.023Z,13.04
2019-04-20T18:05:51.658Z,12.98
2019-04-20T18:08:26.342Z,12.93
2019-04-20T18:10:53.026Z,12.85
2019-04-20T18:13:19.890Z,12.78
2019-04-20T18:16:05.093Z,12.71
2019-04-20T18:18:41.434Z,12.62
2019-04-20T18:21:06.381Z,12.57
2019-04-20T18:23:44.508Z,12.48
2019-04-20T18:26:35.856Z,12.40
2019-04-20T18:29:23.942Z,12.32
2019-04-20T18:31:31.399Z,12.23
2019-04-20T18:34:20.848Z,12.15
2019-04-20T18:37:02.117Z,12.06
2019-04-20T18:39:42.070Z,11.96
2019-04-20T18:42:16.509Z,11.88
2019-04-20T18:45:00.963Z,11.81
2019-04-20T18:47:34.733Z,11.72
2019-04-20T18:49:57.286Z,11.66
2019-04-20T18:52:21.999Z,11.57
2019-04-20T18:54:55.374Z,11.49
2019-04-20T18:57:29.231Z,11.42
2019-04-20T19:00:02.375Z,11.34
2019-04-20T19:02:40.018Z,11.28
2019-04-20T19:05:08.687Z,11.20
2019-04-20T19:07:48.023Z,11.14
2019-04-20T19:10:18.658Z,11.08
2019-04-20T19:12:54.276Z,11.02
2019-04-20T19:15:45.021Z,10.92
2019-04-20T19:18:12.692Z,10.86
2019-04-20T19:20:35.081Z,10.80
2019-04-20T19:23:08.278Z,10.73
2019-04-20T19:25:44.197Z,10.69
2019-04-20T19:28:21.651Z,10.64
2019-04-20T19:31:01.794Z,10.59
2019-04-20T19:33:33.176Z,10.53
2019-04-20T19:36:10.587Z,10.48
2019-04-20T19:38:40.849Z,10.44
2019-04-20T19:41:15.999Z,10.38
2019-04-20T19:43:45.814Z,10.33
2019-04-20T19:46:39.661Z,10.29
2019-04-20T19:48:53.948Z,10.26
2019-04-20T19:51:35.759Z,10.21
2019-04-20T19:54:13.150Z,10.16
2019-04-20T19:56:41.466Z,10.10
2019-04-20T19:59:13.678Z,10.06
2019-04-20T20:01:35.637Z,10.01
2019-04-20T20:04:10.037Z,9.93
2019-04-20T20:06:46.014Z,9.88
2019-04-20T20:09:16.103Z,9.85
2019-04-20T20:11:46.751Z,9.81
2019-04-20T20:14:28.857Z,9.75
2019-04-20T20:17:12.941Z,9.72
2019-04-20T20:19:37.149Z,9.66
2019-04-20T20:22:08.981Z,9.63
2019-04-20T20:24:29.515Z,9.61
2019-04-20T20:27:06.158Z,9.56
2019-04-20T20:29:38.362Z,9.53
2019-04-20T20:32:18.015Z,9.51
2019-04-20T20:34:43.467Z,9.48
2019-04-20T20:37:23.224Z,9.46
2019-04-20T20:39:53.798Z,9.42
2019-04-20T20:42:30.902Z,9.37
2019-04-20T20:44:55.139Z,9.31
2019-04-20T20:47:50.601Z,9.28
2019-04-20T20:50:19.946Z,9.23
2019-04-20T20:52:45.111Z,9.19
2019-04-20T20:55:20.940Z,9.15
2019-04-20T20:57:52.035Z,9.12
2019-04-20T21:00:32.038Z,9.06
2019-04-20T21:02:58.491Z,9.03
2019-04-20T21:05:25.325Z,8.97
2019-04-20T21:07:57.417Z,8.93
2019-04-20T21:10:40.199Z,8.90
2019-04-20T21:13:10.293Z,8.87
2019-04-20T21:15:40.573Z,8.83
2019-04-20T21:18:35.129Z,8.80
2019-04-20T21:21:02.138Z,8.79
2019-04-20T21:23:32.651Z,8.75
2019-04-20T21:26:16.910Z,8.71
2019-04-20T21:28:43.781Z,8.69
2019-04-20T21:31:21.988Z,8.62
2019-04-20T21:33:48.948Z,8.61
2019-04-20T21:36:25.905Z,8.59
2019-04-20T21:39:15.255Z,8.58
2019-04-20T21:41:51.218Z,8.56
2019-04-20T21:44:24.286Z,8.53
2019-04-20T21:46:54.624Z,8.45
2019-04-20T21:49:43.942Z,8.40
2019-04-20T21:52:03.664Z,8.31
2019-04-20T21:54:34.051Z,8.26
2019-04-20T21:57:09.479Z,8.21
2019-04-20T21:59:43.202Z,8.17
2019-04-20T22:02:18.606Z,8.11
2019-04-20T22:04:43.223Z,8.07
2019-04-20T22:07:16.487Z,8.04
2019-04-20T22:09:51.605Z,8.01
2019-04-20T22:12:20.408Z,7.95
2019-04-20T22:14:58.955Z,7.92
2019-04-20T22:17:28.894Z,7.85
2019-04-20T22:20:10.279Z,7.85
2019-04-20T22:22:49.448Z,7.81
2019-04-20T22:25:26.305Z,7.77
2019-04-20T22:27:37.620Z,7.75
2019-04-20T22:30:10.335Z,7.72
2019-04-20T22:32:44.146Z,7.69
2019-04-20T22:35:16.211Z,7.68
2019-04-20T22:37:58.869Z,7.66
2019-04-20T22:40:28.854Z,7.62
2019-04-20T22:43:00.089Z,7.58
2019-04-20T22:45:33.963Z,7.54
2019-04-20T22:48:07.270Z,7.51
2019-04-20T22:50:52.895Z,7.48
2019-04-20T22:53:22.705Z,7.46
2019-04-20T22:56:04.600Z,7.42
2019-04-20T22:58:47.926Z,7.35
2019-04-20T23:01:14.373Z,7.32
2019-04-20T23:03:36.744Z,7.30
2019-04-20T23:06:09.034Z,7.26
2019-04-20T23:08:40.527Z,7.21
2019-04-20T23:11:18.080Z,7.16
2019-04-20T23:13:46.988Z,7.12
2019-04-20T23:16:17.415Z,7.10
2019-04-20T23:18:49.725Z,7.10
2019-04-20T23:21:21.716Z,7.06
2019-04-20T23:24:01.560Z,7.04
2019-04-20T23:26:35.903Z,7.01
2019-04-20T23:29:02.427Z,7.01
2019-04-20T23:31:32.407Z,6.97
2019-04-20T23:34:12.378Z,6.97
2019-04-20T23:36:40.339Z,6.91
2019-04-20T23:39:10.694Z,6.89
2019-04-20T23:41:49.894Z,6.85
2019-04-20T23:44:23.042Z,6.81
2019-04-20T23:47:04.560Z,6.75
2019-04-20T23:49:38.123Z,6.72
2019-04-20T23:52:26.076Z,6.67
2019-04-20T23:54:37.569Z,6.64
2019-04-20T23:57:09.023Z,6.62
2019-04-20T23:59:43.169Z,6.60
